createdAt,value
2017-12-31T06:28:14.779Z,10.67
2017-12-31T06:30:46.670Z,10.03
2017-12-31T06:33:18.575Z,11.97
2017-12-31T06:35:51.255Z,18.57
2017-12-31T06:38:23.912Z,11.40
2017-12-31T06:40:55.806Z,11.10
2017-12-31T06:43:27.695Z,8.00
2017-12-31T06:45:59.600Z,11.47
2017-12-31T06:48:31.472Z,8.53
2017-12-31T06:51:04.147Z,12.37
2017-12-31T06:53:36.783Z,12.77
2017-12-31T06:56:08.700Z,7.90
2017-12-31T06:58:41.328Z,8.73
2017-12-31T07:01:13.236Z,11.73
2017-12-31T07:03:45.111Z,12.97
2017-12-31T07:06:17.003Z,8.07
2017-12-31T07:08:48.871Z,8.07
2017-12-31T07:11:20.764Z,7.77
2017-12-31T07:13:52.654Z,6.97
2017-12-31T07:16:24.551Z,7.43
2017-12-31T07:18:56.427Z,7.47
2017-12-31T07:21:28.316Z,8.77
2017-12-31T07:24:00.195Z,9.60
2017-12-31T07:26:32.099Z,8.60
2017-12-31T07:29:03.975Z,10.10
2017-12-31T07:31:35.879Z,6.33
2017-12-31T07:34:07.750Z,7.50
2017-12-31T07:36:39.651Z,9.00
2017-12-31T07:39:11.528Z,7.47
2017-12-31T07:41:44.187Z,9.90
2017-12-31T07:44:16.059Z,8.47
2017-12-31T07:46:48.741Z,9.90
2017-12-31T07:49:21.375Z,8.30
2017-12-31T07:51:53.271Z,8.50
2017-12-31T07:54:25.138Z,4.83
2017-12-31T07:56:57.807Z,6.23
2017-12-31T07:59:29.683Z,9.97
2017-12-31T08:02:02.346Z,8.30
2017-12-31T08:04:34.227Z,6.37
2017-12-31T08:07:06.130Z,12.83
2017-12-31T08:09:38.007Z,10.30
2017-12-31T08:12:10.159Z,11.10
2017-12-31T08:14:42.039Z,8.67
2017-12-31T08:17:13.935Z,9.10
2017-12-31T08:19:45.807Z,7.40
2017-12-31T08:22:17.695Z,4.97
2017-12-31T08:24:49.566Z,9.90
2017-12-31T08:27:22.238Z,9.50
2017-12-31T08:29:54.117Z,12.37
2017-12-31T08:32:26.023Z,7.60
2017-12-31T08:34:58.011Z,8.37
2017-12-31T08:37:29.896Z,7.40
2017-12-31T08:40:01.780Z,9.97
2017-12-31T08:42:34.452Z,10.17
2017-12-31T08:45:06.347Z,8.57
2017-12-31T08:47:38.230Z,8.17
2017-12-31T08:50:10.324Z,7.10
2017-12-31T08:52:42.219Z,12.60
2017-12-31T08:55:14.859Z,8.03
2017-12-31T08:57:46.779Z,11.10
2017-12-31T09:00:18.660Z,13.07
2017-12-31T09:02:50.551Z,9.27
2017-12-31T09:05:22.429Z,9.07
2017-12-31T09:07:55.106Z,8.83
2017-12-31T09:10:27.749Z,12.63
2017-12-31T09:12:59.656Z,8.53
2017-12-31T09:15:32.295Z,6.87
2017-12-31T09:18:04.969Z,12.67
2017-12-31T09:20:36.858Z,10.00
2017-12-31T09:23:08.751Z,9.13
2017-12-31T09:25:40.637Z,13.27
2017-12-31T09:28:12.770Z,11.03
2017-12-31T09:30:44.649Z,11.67
2017-12-31T09:33:16.542Z,10.03
2017-12-31T09:35:48.414Z,9.40
2017-12-31T09:38:20.329Z,11.20
2017-12-31T09:40:52.212Z,11.97
2017-12-31T09:43:24.110Z,7.67
2017-12-31T09:45:56.766Z,9.70
2017-12-31T09:48:28.657Z,11.47
2017-12-31T09:51:01.303Z,13.67
2017-12-31T09:53:33.638Z,7.60
2017-12-31T09:56:05.509Z,9.07
2017-12-31T09:58:37.388Z,7.80
2017-12-31T10:01:09.264Z,9.57
2017-12-31T10:03:41.175Z,11.37
2017-12-31T10:06:13.056Z,7.47
2017-12-31T10:08:44.959Z,10.60
2017-12-31T10:11:17.611Z,8.70
2017-12-31T10:13:49.514Z,10.90
2017-12-31T10:16:21.401Z,8.97
2017-12-31T10:18:53.307Z,7.50
2017-12-31T10:21:25.187Z,8.00
2017-12-31T10:23:58.183Z,7.80
2017-12-31T10:26:30.061Z,10.70
2017-12-31T10:29:01.951Z,5.83
2017-12-31T10:31:33.874Z,6.87
2017-12-31T10:34:05.743Z,6.30
2017-12-31T10:36:37.644Z,11.10
2017-12-31T10:39:09.555Z,5.50
2017-12-31T10:41:41.434Z,7.70
2017-12-31T10:44:13.353Z,5.30
2017-12-31T10:46:45.998Z,9.67
2017-12-31T10:49:17.902Z,5.47
2017-12-31T10:51:49.787Z,6.33
2017-12-31T10:54:21.718Z,6.80
2017-12-31T10:56:53.575Z,7.43
2017-12-31T10:59:26.231Z,7.07
2017-12-31T11:01:58.112Z,3.60
2017-12-31T11:04:30.785Z,7.70
2017-12-31T11:07:03.427Z,6.40
2017-12-31T11:09:35.320Z,6.93
2017-12-31T11:12:07.979Z,4.53
2017-12-31T11:14:39.883Z,5.20
2017-12-31T11:17:11.760Z,4.70
2017-12-31T11:19:43.667Z,6.90
2017-12-31T11:22:17.139Z,6.10
2017-12-31T11:24:49.052Z,6.20
2017-12-31T11:27:21.704Z,6.23
2017-12-31T11:29:53.586Z,4.80
2017-12-31T11:32:26.230Z,5.00
2017-12-31T11:34:58.135Z,7.77
2017-12-31T11:37:30.020Z,4.33
2017-12-31T11:40:01.909Z,4.93
2017-12-31T11:42:33.776Z,4.83
2017-12-31T11:45:05.678Z,5.70
2017-12-31T11:47:37.567Z,5.77
2017-12-31T11:50:09.469Z,5.10
2017-12-31T11:52:41.341Z,5.77
2017-12-31T11:55:14.039Z,7.97
2017-12-31T11:57:45.927Z,4.47
2017-12-31T12:00:17.825Z,5.27
2017-12-31T12:02:49.703Z,5.13
2017-12-31T12:05:22.378Z,4.57
2017-12-31T12:07:55.019Z,6.47
2017-12-31T12:10:26.921Z,7.63
2017-12-31T12:12:59.583Z,6.60
2017-12-31T12:15:31.481Z,4.93
2017-12-31T12:18:03.407Z,6.03
2017-12-31T12:20:35.307Z,5.40
2017-12-31T12:23:07.199Z,10.17
2017-12-31T12:25:39.099Z,7.90
2017-12-31T12:28:11.739Z,4.97
2017-12-31T12:30:43.625Z,5.13
2017-12-31T12:33:15.499Z,5.67
2017-12-31T12:35:48.163Z,6.93
2017-12-31T12:38:20.039Z,5.20
2017-12-31T12:40:52.719Z,4.23
2017-12-31T12:43:25.367Z,3.93
2017-12-31T12:45:57.254Z,2.47
2017-12-31T12:48:29.900Z,5.07
2017-12-31T12:51:01.803Z,3.40
2017-12-31T12:53:33.681Z,6.03
2017-12-31T12:56:05.585Z,4.37
2017-12-31T12:58:37.450Z,6.50
2017-12-31T13:01:09.374Z,3.67
2017-12-31T13:03:41.259Z,5.10
2017-12-31T13:06:13.167Z,4.13
2017-12-31T13:08:45.801Z,4.40
2017-12-31T13:11:17.710Z,5.00
2017-12-31T13:13:49.598Z,4.77
2017-12-31T13:16:21.483Z,6.50
2017-12-31T13:18:53.359Z,10.27
2017-12-31T13:21:25.243Z,6.97
2017-12-31T13:23:57.880Z,4.70
2017-12-31T13:26:29.785Z,5.13
2017-12-31T13:29:01.675Z,5.93
2017-12-31T13:31:33.608Z,4.00
2017-12-31T13:34:05.479Z,6.70
2017-12-31T13:36:37.371Z,4.87
2017-12-31T13:39:09.259Z,3.47
2017-12-31T13:41:41.159Z,3.97
2017-12-31T13:44:13.036Z,6.63
2017-12-31T13:46:44.939Z,5.37
2017-12-31T13:49:16.867Z,6.57
2017-12-31T13:51:48.758Z,3.20
2017-12-31T13:54:20.692Z,6.00
2017-12-31T13:56:52.550Z,5.97
2017-12-31T13:59:24.424Z,5.67
2017-12-31T14:01:56.647Z,6.90
2017-12-31T14:04:28.507Z,5.30
2017-12-31T14:07:00.473Z,5.37
2017-12-31T14:09:33.123Z,6.33
2017-12-31T14:12:05.803Z,5.33
2017-12-31T14:14:38.461Z,4.30
2017-12-31T14:17:10.423Z,6.03
2017-12-31T14:19:42.255Z,6.53
2017-12-31T14:22:14.167Z,4.90
2017-12-31T14:24:46.822Z,3.13
2017-12-31T14:27:18.730Z,6.27
2017-12-31T14:29:50.887Z,4.83
2017-12-31T14:32:22.785Z,5.60
2017-12-31T14:34:54.667Z,5.23
2017-12-31T14:37:26.567Z,7.10
2017-12-31T14:39:58.442Z,5.47
2017-12-31T14:42:30.350Z,4.70
2017-12-31T14:45:02.263Z,5.77
2017-12-31T14:47:34.143Z,7.40
2017-12-31T14:50:06.023Z,3.47
2017-12-31T14:52:37.924Z,3.20
2017-12-31T14:55:10.554Z,3.43
2017-12-31T14:57:42.481Z,3.03
2017-12-31T15:00:14.368Z,6.27
2017-12-31T15:02:46.262Z,7.03
2017-12-31T15:05:18.135Z,5.23
2017-12-31T15:07:50.807Z,7.87
2017-12-31T15:10:23.456Z,3.20
2017-12-31T15:12:56.127Z,3.43
2017-12-31T15:15:28.009Z,5.57
2017-12-31T15:17:59.899Z,3.47
2017-12-31T15:20:31.772Z,3.80
2017-12-31T15:23:03.729Z,5.60
2017-12-31T15:25:35.566Z,5.37
2017-12-31T15:28:08.243Z,5.95
2017-12-31T15:30:40.115Z,5.70
2017-12-31T15:33:12.771Z,5.97
2017-12-31T15:35:44.649Z,8.27
2017-12-31T15:38:17.327Z,4.97
2017-12-31T15:40:50.018Z,5.73
2017-12-31T15:43:22.671Z,5.10
2017-12-31T15:45:54.547Z,3.00
2017-12-31T15:48:27.223Z,3.80
2017-12-31T15:50:59.883Z,4.97
2017-12-31T15:53:31.769Z,5.37
2017-12-31T15:56:04.407Z,5.07
2017-12-31T15:58:36.295Z,5.07
2017-12-31T16:01:08.958Z,7.03
2017-12-31T16:03:40.886Z,3.13
2017-12-31T16:06:12.768Z,2.93
2017-12-31T16:08:44.672Z,4.37
2017-12-31T16:11:16.547Z,6.33
2017-12-31T16:13:48.438Z,4.50
2017-12-31T16:16:20.321Z,6.60
2017-12-31T16:18:52.231Z,6.30
2017-12-31T16:21:24.119Z,4.43
2017-12-31T16:23:56.018Z,4.53
2017-12-31T16:26:28.674Z,4.87
2017-12-31T16:29:00.567Z,4.27
2017-12-31T16:31:33.214Z,5.73
2017-12-31T16:34:05.098Z,4.03
2017-12-31T16:36:37.744Z,6.77
2017-12-31T16:39:09.637Z,4.93
2017-12-31T16:41:42.285Z,5.47
2017-12-31T16:44:14.175Z,3.90
2017-12-31T16:46:46.826Z,4.00
2017-12-31T16:49:18.727Z,5.47
2017-12-31T16:51:50.599Z,3.53
2017-12-31T16:54:22.503Z,5.70
2017-12-31T16:56:54.371Z,4.63
2017-12-31T16:59:26.275Z,4.10
2017-12-31T17:01:58.154Z,5.37
2017-12-31T17:04:30.063Z,8.67
2017-12-31T17:07:02.700Z,4.60
2017-12-31T17:09:34.598Z,3.63
2017-12-31T17:12:06.482Z,5.93
2017-12-31T17:14:38.386Z,5.47
2017-12-31T17:17:10.255Z,6.40
2017-12-31T17:19:42.158Z,4.20
2017-12-31T17:22:14.796Z,5.93
2017-12-31T17:24:46.691Z,7.27
2017-12-31T17:27:19.324Z,5.22
2017-12-31T17:29:51.228Z,5.67
2017-12-31T17:32:23.879Z,5.50
2017-12-31T17:34:55.766Z,7.20
2017-12-31T17:37:28.419Z,5.40
2017-12-31T17:40:00.329Z,4.77
2017-12-31T17:42:32.211Z,4.23
2017-12-31T17:45:04.119Z,3.77
2017-12-31T17:47:36.790Z,4.80
2017-12-31T17:50:08.672Z,9.73
2017-12-31T17:52:40.567Z,7.57
2017-12-31T17:55:12.472Z,4.93
2017-12-31T17:57:45.116Z,7.13
2017-12-31T18:00:17.002Z,4.70
2017-12-31T18:02:48.885Z,5.37
2017-12-31T18:05:21.527Z,7.17
2017-12-31T18:07:53.405Z,6.53
2017-12-31T18:10:25.518Z,4.40
2017-12-31T18:12:57.395Z,7.77
2017-12-31T18:15:29.301Z,3.77
2017-12-31T18:18:02.331Z,5.30
2017-12-31T18:20:34.226Z,5.47
2017-12-31T18:23:06.106Z,4.40
2017-12-31T18:25:38.776Z,4.67
2017-12-31T18:28:10.647Z,4.90
2017-12-31T18:30:43.319Z,3.73
2017-12-31T18:33:15.202Z,6.40
2017-12-31T18:35:47.873Z,8.47
2017-12-31T18:38:20.507Z,5.53
2017-12-31T18:40:52.421Z,6.83
2017-12-31T18:43:24.305Z,6.97
2017-12-31T18:45:56.206Z,5.90
2017-12-31T18:48:28.106Z,4.43
2017-12-31T18:51:00.004Z,6.93
2017-12-31T18:53:31.875Z,3.90
2017-12-31T18:56:03.761Z,3.87
2017-12-31T18:58:35.635Z,4.60
2017-12-31T19:01:08.286Z,3.83
2017-12-31T19:03:40.175Z,4.73
2017-12-31T19:06:12.819Z,5.07
2017-12-31T19:08:44.746Z,6.07
2017-12-31T19:11:16.635Z,5.67
2017-12-31T19:13:48.500Z,3.80
2017-12-31T19:16:20.404Z,8.30
2017-12-31T19:18:52.279Z,4.90
2017-12-31T19:21:24.185Z,6.13
2017-12-31T19:23:56.046Z,5.73
2017-12-31T19:26:27.938Z,7.57
2017-12-31T19:28:59.815Z,9.33
2017-12-31T19:31:31.735Z,10.57
2017-12-31T19:34:03.605Z,19.53
2017-12-31T19:36:36.266Z,12.60
2017-12-31T19:39:08.138Z,10.07
2017-12-31T19:41:40.821Z,12.83
2017-12-31T19:44:13.460Z,5.50
2017-12-31T19:46:46.118Z,7.27
2017-12-31T19:49:18.007Z,6.07
2017-12-31T19:51:49.903Z,5.73
2017-12-31T19:54:22.555Z,6.10
2017-12-31T19:56:54.474Z,13.40
2017-12-31T19:59:26.370Z,5.73
2017-12-31T20:01:58.261Z,6.30
2017-12-31T20:04:30.911Z,6.80
2017-12-31T20:07:02.815Z,3.93
2017-12-31T20:09:34.698Z,3.53
2017-12-31T20:12:06.598Z,4.63
2017-12-31T20:14:38.471Z,4.03
2017-12-31T20:17:11.124Z,6.80
2017-12-31T20:19:42.995Z,7.13
2017-12-31T20:22:14.910Z,9.47
2017-12-31T20:24:46.775Z,6.03
2017-12-31T20:27:18.671Z,5.00
2017-12-31T20:29:50.551Z,9.47
2017-12-31T20:32:23.215Z,5.03
2017-12-31T20:34:55.083Z,5.93
2017-12-31T20:37:27.003Z,3.97
2017-12-31T20:39:58.887Z,6.87
2017-12-31T20:42:30.773Z,5.10
2017-12-31T20:45:03.407Z,3.37
2017-12-31T20:47:35.303Z,5.27
2017-12-31T20:50:07.175Z,8.13
2017-12-31T20:52:39.851Z,4.00
2017-12-31T20:55:12.495Z,5.67
2017-12-31T20:57:44.395Z,3.20
2017-12-31T21:00:17.039Z,4.93
2017-12-31T21:02:48.955Z,4.43
2017-12-31T21:05:20.830Z,3.87
2017-12-31T21:07:52.732Z,4.03
2017-12-31T21:10:24.598Z,5.20
2017-12-31T21:12:56.490Z,6.13
2017-12-31T21:15:28.384Z,3.67
2017-12-31T21:18:00.278Z,4.87
2017-12-31T21:20:32.147Z,5.37
2017-12-31T21:23:04.844Z,12.47
2017-12-31T21:25:36.711Z,10.27
2017-12-31T21:28:08.614Z,11.70
2017-12-31T21:30:40.506Z,7.43
2017-12-31T21:33:13.178Z,11.63
2017-12-31T21:35:45.050Z,8.20
2017-12-31T21:38:17.696Z,9.27
2017-12-31T21:40:49.566Z,6.90
2017-12-31T21:43:21.467Z,9.37
2017-12-31T21:45:53.334Z,5.97
2017-12-31T21:48:25.226Z,7.00
2017-12-31T21:50:57.114Z,7.07
2017-12-31T21:53:29.779Z,4.73
2017-12-31T21:56:01.728Z,8.40
2017-12-31T21:58:33.631Z,10.30
2017-12-31T22:01:06.278Z,6.43
2017-12-31T22:03:38.175Z,7.60
2017-12-31T22:06:10.342Z,9.03
2017-12-31T22:08:42.254Z,14.13
2017-12-31T22:11:14.159Z,6.93
2017-12-31T22:13:46.819Z,4.93
2017-12-31T22:16:18.702Z,5.43
2017-12-31T22:18:51.363Z,4.43
2017-12-31T22:21:24.002Z,6.57
2017-12-31T22:23:55.899Z,5.00
2017-12-31T22:26:28.549Z,5.03
2017-12-31T22:29:00.455Z,5.70
2017-12-31T22:31:32.339Z,4.87
2017-12-31T22:34:04.227Z,5.70
2017-12-31T22:36:36.099Z,4.43
2017-12-31T22:39:07.991Z,4.47
2017-12-31T22:41:40.633Z,4.63
2017-12-31T22:44:12.583Z,6.03
2017-12-31T22:46:44.447Z,5.53
2017-12-31T22:49:16.343Z,4.30
2017-12-31T22:51:48.995Z,5.50
2017-12-31T22:54:20.899Z,6.37
2017-12-31T22:56:52.771Z,10.87
2017-12-31T22:59:24.699Z,11.53
2017-12-31T23:01:57.370Z,17.33
2017-12-31T23:04:30.038Z,80.53
2017-12-31T23:07:01.927Z,143.57
2017-12-31T23:09:34.659Z,174.87
2017-12-31T23:12:06.549Z,207.57
2017-12-31T23:14:39.226Z,162.03
2017-12-31T23:17:11.099Z,134.77
2017-12-31T23:19:44.572Z,140.27
2017-12-31T23:22:16.442Z,144.43
2017-12-31T23:24:48.347Z,85.30
2017-12-31T23:27:20.228Z,79.27
2017-12-31T23:29:52.158Z,72.93
2017-12-31T23:32:24.043Z,70.43
2017-12-31T23:34:56.751Z,48.40
2017-12-31T23:37:28.643Z,47.10
2017-12-31T23:40:01.319Z,49.73
2017-12-31T23:42:33.967Z,54.00
2017-12-31T23:45:05.894Z,36.03
2017-12-31T23:47:37.767Z,15.03
2017-12-31T23:50:09.676Z,34.53
2017-12-31T23:52:42.313Z,19.13
2017-12-31T23:55:14.227Z,13.83
2017-12-31T23:57:46.112Z,13.77
